Time;durP1;ratioP1;P1;durP2;ratioP2;P2;SDS_P1;SDS_P2;PMS_P1;PMS_P2;Temp;Humidity;BMP_temperature;BMP_pressure;BME280_temperature;BME280_humidity;BME280_pressure;Samples;Min_cycle;Max_cycle;Signal;HPM_P1;HPM_P2
2022/01/02 00:01:17;;;;;;;12.98;3.50;;;;;;;;;;4994231;28;20023;-66
2022/01/02 00:03:43;;;;;;;9.55;2.97;;;;;;;;;;4994331;28;20382;-66
2022/01/02 00:06:10;;;;;;;12.90;3.75;;;;;;;;;;4993398;28;20113;-66
2022/01/02 00:08:41;;;;;;;13.98;3.60;;;;;;;;;;4972485;28;20023;-66
2022/01/02 00:11:10;;;;;;;14.35;4.10;;;;;;;;;;4973214;28;20070;-66
2022/01/02 00:13:38;;;;;;;10.05;3.40;;;;;;;;;;4974475;28;20027;-66
2022/01/02 00:16:06;;;;;;;12.82;4.53;;;;;;;;;;4974423;28;20034;-66
2022/01/02 00:18:36;;;;;;;15.23;3.72;;;;;;;;;;4993768;28;20044;-66
2022/01/02 00:21:06;;;;;;;14.20;3.60;;;;;;;;;;4992120;28;20057;-66
2022/01/02 00:23:41;;;;;;;12.57;3.30;;;;;;;;;;4993705;28;20034;-66
2022/01/02 00:26:15;;;;;;;12.65;3.05;;;;;;;;;;4993676;28;20042;-66
2022/01/02 00:28:41;;;;;;;18.63;3.40;;;;;;;;;;4993260;28;20449;-66
2022/01/02 00:31:08;;;;;;;7.72;3.65;;;;;;;;;;4976042;28;20024;-66
2022/01/02 00:33:35;;;;;;;10.13;3.25;;;;;;;;;;4976214;28;20449;-66
2022/01/02 00:36:04;;;;;;;13.55;3.22;;;;;;;;;;4995468;28;20030;-66
2022/01/02 00:38:30;;;;;;;8.10;3.00;;;;;;;;;;4995633;28;20482;-66
2022/01/02 00:40:58;;;;;;;10.60;2.97;;;;;;;;;;5000883;28;20160;-66
2022/01/02 00:43:34;;;;;;;9.43;2.92;;;;;;;;;;4993831;28;20034;-66
2022/01/02 00:46:00;;;;;;;10.82;2.67;;;;;;;;;;4992792;28;20038;-66
2022/01/02 00:48:30;;;;;;;6.47;2.65;;;;;;;;;;4994604;28;20026;-66
2022/01/02 00:50:59;;;;;;;7.88;2.50;;;;;;;;;;4993160;28;20035;-66
2022/01/02 00:53:26;;;;;;;13.70;2.60;;;;;;;;;;4993082;28;20045;-66
2022/01/02 00:55:56;;;;;;;5.40;2.60;;;;;;;;;;4993314;28;20045;-66
2022/01/02 00:58:25;;;;;;;8.48;2.97;;;;;;;;;;4993437;28;20034;-66
2022/01/02 01:00:52;;;;;;;8.82;3.03;;;;;;;;;;4992484;28;20423;-66
2022/01/02 01:03:22;;;;;;;6.72;2.75;;;;;;;;;;4993309;28;20121;-66
2022/01/02 01:05:48;;;;;;;12.30;2.95;;;;;;;;;;4971968;28;20103;-66
2022/01/02 01:08:14;;;;;;;8.35;2.30;;;;;;;;;;4972420;28;20035;-66
2022/01/02 01:10:44;;;;;;;4.45;2.50;;;;;;;;;;4974008;28;20035;-66
2022/01/02 01:13:10;;;;;;;14.15;2.88;;;;;;;;;;4990730;28;20015;-66
2022/01/02 01:15:37;;;;;;;14.75;3.35;;;;;;;;;;4978752;28;20034;-66
2022/01/02 01:18:05;;;;;;;13.25;3.13;;;;;;;;;;4979068;28;20096;-66
2022/01/02 01:20:36;;;;;;;16.05;2.92;;;;;;;;;;4979662;28;20037;-66
2022/01/02 01:23:02;;;;;;;10.10;3.00;;;;;;;;;;4996652;28;20052;-66
2022/01/02 01:25:28;;;;;;;8.68;2.67;;;;;;;;;;4979660;28;20045;-66
2022/01/02 01:27:56;;;;;;;9.93;2.80;;;;;;;;;;4975352;28;20426;-66
2022/01/02 01:30:24;;;;;;;13.65;2.90;;;;;;;;;;4977693;28;20031;-66
2022/01/02 01:32:52;;;;;;;16.42;3.55;;;;;;;;;;4959871;28;20027;-66
2022/01/02 01:35:19;;;;;;;11.70;2.97;;;;;;;;;;4988037;28;20065;-66
2022/01/02 01:37:45;;;;;;;13.07;3.20;;;;;;;;;;4975617;28;20046;-66
2022/01/02 01:40:13;;;;;;;10.65;3.10;;;;;;;;;;4978547;28;20520;-66
2022/01/02 01:42:43;;;;;;;16.83;3.22;;;;;;;;;;4978723;28;20117;-66
2022/01/02 01:47:53;;;;;;;19.27;3.28;;;;;;;;;;4992711;28;20037;-66
2022/01/02 01:50:21;;;;;;;16.30;2.70;;;;;;;;;;4998555;28;20034;-66
2022/01/02 01:52:47;;;;;;;14.20;2.63;;;;;;;;;;5009315;28;20026;-66
2022/01/02 01:55:14;;;;;;;8.98;2.40;;;;;;;;;;4979032;28;20521;-66
2022/01/02 01:57:40;;;;;;;21.00;3.28;;;;;;;;;;4965555;28;20058;-66
2022/01/02 02:00:10;;;;;;;13.85;2.60;;;;;;;;;;4965151;28;20403;-66
2022/01/02 02:02:44;;;;;;;9.63;2.40;;;;;;;;;;4996279;28;20050;-66
2022/01/02 02:05:11;;;;;;;15.77;3.20;;;;;;;;;;4978708;28;20133;-66
2022/01/02 02:07:41;;;;;;;15.05;3.53;;;;;;;;;;4977103;28;20110;-66
2022/01/02 02:10:23;;;;;;;12.80;3.08;;;;;;;;;;4977687;28;20031;-66
2022/01/02 02:12:51;;;;;;;12.68;2.60;;;;;;;;;;4978631;28;20026;-66
2022/01/02 02:15:17;;;;;;;11.68;2.60;;;;;;;;;;4975597;28;20026;-66
2022/01/02 02:17:47;;;;;;;12.48;2.65;;;;;;;;;;4995165;28;20112;-66
2022/01/02 02:20:17;;;;;;;11.27;2.35;;;;;;;;;;4986883;28;20487;-66
2022/01/02 02:22:46;;;;;;;13.68;2.30;;;;;;;;;;4990260;28;20034;-66
2022/01/02 02:25:14;;;;;;;7.43;2.45;;;;;;;;;;4979447;28;20031;-66
2022/01/02 02:27:47;;;;;;;15.38;2.60;;;;;;;;;;4990193;28;20380;-66
2022/01/02 02:30:13;;;;;;;;;;;;;;;;;;4979300;28;20490;-66
2022/01/02 02:32:40;;;;;;;16.10;2.60;;;;;;;;;;4994921;28;19906;-66
2022/01/02 02:35:06;;;;;;;16.95;3.35;;;;;;;;;;4980216;28;20499;-66
2022/01/02 02:37:32;;;;;;;17.48;3.63;;;;;;;;;;4994577;28;20038;-66
2022/01/02 02:39:59;;;;;;;23.58;3.15;;;;;;;;;;4978553;28;20038;-66
2022/01/02 02:42:42;;;;;;;12.90;4.47;;;;;;;;;;4995067;28;20058;-66
2022/01/02 02:50:48;;;;;;;18.42;2.80;;;;;;;;;;4981131;28;20030;-66
2022/01/02 02:53:15;;;;;;;16.83;3.75;;;;;;;;;;4998270;28;20117;-66
2022/01/02 02:55:47;;;;;;;16.45;2.63;;;;;;;;;;4998224;28;20030;-66
2022/01/02 03:01:00;;;;;;;16.95;3.25;;;;;;;;;;4977169;28;20100;-66
2022/01/02 03:03:26;;;;;;;16.02;3.17;;;;;;;;;;4978335;28;20391;-66
2022/01/02 03:05:53;;;;;;;18.00;2.85;;;;;;;;;;4990419;28;20046;-66
2022/01/02 03:08:19;;;;;;;22.75;3.72;;;;;;;;;;4989677;28;20117;-66
2022/01/02 03:10:45;;;;;;;21.05;3.72;;;;;;;;;;4971572;28;20034;-66
2022/01/02 03:13:12;;;;;;;24.90;3.55;;;;;;;;;;4995579;28;20026;-66
2022/01/02 03:15:38;;;;;;;21.73;3.25;;;;;;;;;;4985779;28;20062;-66
2022/01/02 03:18:04;;;;;;;22.05;3.80;;;;;;;;;;4995208;28;20121;-66
2022/01/02 03:20:30;;;;;;;19.58;3.20;;;;;;;;;;4995935;28;20103;-66
2022/01/02 03:22:56;;;;;;;17.70;3.13;;;;;;;;;;4980995;28;20022;-66
2022/01/02 03:25:22;;;;;;;17.08;3.10;;;;;;;;;;4996630;28;20084;-66
2022/01/02 03:27:48;;;;;;;23.55;4.00;;;;;;;;;;4977306;28;20026;-66
2022/01/02 03:30:15;;;;;;;19.60;3.75;;;;;;;;;;4976804;28;20494;-66
2022/01/02 03:32:41;;;;;;;18.15;4.03;;;;;;;;;;4978808;28;20085;-66
2022/01/02 03:35:08;;;;;;;18.23;4.18;;;;;;;;;;4976702;28;20022;-66
2022/01/02 03:37:34;;;;;;;28.63;4.57;;;;;;;;;;4976016;28;20057;-66
2022/01/02 03:40:01;;;;;;;22.33;3.60;;;;;;;;;;4976750;28;20053;-66
2022/01/02 03:42:30;;;;;;;22.80;4.05;;;;;;;;;;4982586;28;20157;-66
2022/01/02 03:45:00;;;;;;;29.35;5.18;;;;;;;;;;4979446;28;20050;-66
2022/01/02 03:47:26;;;;;;;20.83;4.00;;;;;;;;;;4980208;28;20093;-66
2022/01/02 03:49:52;;;;;;;16.52;3.22;;;;;;;;;;4993800;28;20018;-66
2022/01/02 03:52:19;;;;;;;24.77;4.45;;;;;;;;;;4976398;28;20034;-66
2022/01/02 03:54:45;;;;;;;27.80;3.90;;;;;;;;;;4993335;28;20030;-66
2022/01/02 03:57:11;;;;;;;27.42;3.42;;;;;;;;;;4985346;28;20041;-66
2022/01/02 03:59:38;;;;;;;28.35;3.58;;;;;;;;;;4990671;28;20041;-66
2022/01/02 04:02:04;;;;;;;21.65;3.63;;;;;;;;;;4987781;28;20018;-66
2022/01/02 04:04:30;;;;;;;26.80;4.80;;;;;;;;;;4977815;28;20034;-66
2022/01/02 04:06:57;;;;;;;30.45;4.40;;;;;;;;;;4990122;28;20378;-67
2022/01/02 04:09:23;;;;;;;23.65;3.72;;;;;;;;;;4975980;28;20030;-66
2022/01/02 04:11:49;;;;;;;22.77;4.90;;;;;;;;;;4984051;28;20042;-66
2022/01/02 04:14:15;;;;;;;20.67;3.95;;;;;;;;;;4995408;28;20030;-66
2022/01/02 04:16:42;;;;;;;35.58;3.85;;;;;;;;;;4993677;28;20038;-66
2022/01/02 04:19:09;;;;;;;19.65;4.00;;;;;;;;;;4975296;28;20129;-66
2022/01/02 04:21:36;;;;;;;16.27;4.20;;;;;;;;;;4973271;28;20038;-66
2022/01/02 04:24:02;;;;;;;28.77;4.05;;;;;;;;;;4971780;28;20027;-66
2022/01/02 04:26:30;;;;;;;22.98;3.63;;;;;;;;;;4973042;28;20027;-66
2022/01/02 04:28:57;;;;;;;15.18;3.30;;;;;;;;;;4962697;28;20109;-66
2022/01/02 04:31:23;;;;;;;18.30;2.90;;;;;;;;;;4975530;28;20129;-66
2022/01/02 04:33:50;;;;;;;24.17;3.78;;;;;;;;;;4975541;28;20026;-66
2022/01/02 04:36:16;;;;;;;17.58;3.10;;;;;;;;;;4975704;28;20044;-66
2022/01/02 04:38:45;;;;;;;22.08;3.13;;;;;;;;;;4975417;28;20042;-66
2022/01/02 04:41:11;;;;;;;9.93;2.40;;;;;;;;;;4975197;28;20026;-66
2022/01/02 04:43:37;;;;;;;18.13;3.60;;;;;;;;;;4975075;28;20029;-66
2022/01/02 04:46:05;;;;;;;19.50;3.47;;;;;;;;;;4975457;28;20031;-66
2022/01/02 04:48:31;;;;;;;22.63;4.78;;;;;;;;;;4974446;28;20168;-66
2022/01/02 04:50:58;;;;;;;23.15;3.22;;;;;;;;;;4975511;28;20090;-66
2022/01/02 04:53:24;;;;;;;30.98;5.07;;;;;;;;;;4975611;28;20030;-66
2022/01/02 04:55:51;;;;;;;14.90;2.83;;;;;;;;;;4975003;28;20041;-66
2022/01/02 04:58:17;;;;;;;18.38;3.28;;;;;;;;;;4975576;28;20490;-66
2022/01/02 05:00:44;;;;;;;25.08;3.60;;;;;;;;;;4975194;28;20034;-66
2022/01/02 05:03:10;;;;;;;14.43;3.60;;;;;;;;;;4975069;28;20038;-66
2022/01/02 05:05:37;;;;;;;22.85;3.40;;;;;;;;;;4959128;28;20410;-66
2022/01/02 05:08:03;;;;;;;23.05;3.85;;;;;;;;;;4975415;28;20046;-66
2022/01/02 05:10:29;;;;;;;19.50;2.90;;;;;;;;;;4992218;28;20038;-66
2022/01/02 05:12:57;;;;;;;14.50;2.97;;;;;;;;;;4975295;28;20410;-66
2022/01/02 05:15:23;;;;;;;18.38;3.65;;;;;;;;;;4975322;28;20100;-66
2022/01/02 05:17:50;;;;;;;23.98;3.28;;;;;;;;;;4974942;28;20026;-66
2022/01/02 05:20:16;;;;;;;21.38;3.03;;;;;;;;;;4975223;28;20033;-66
2022/01/02 05:22:43;;;;;;;20.77;3.15;;;;;;;;;;4975140;28;20035;-66
2022/01/02 05:25:09;;;;;;;24.92;4.07;;;;;;;;;;4974834;28;20030;-66
2022/01/02 05:27:35;;;;;;;14.43;3.03;;;;;;;;;;4975158;28;20026;-66
2022/01/02 05:30:02;;;;;;;24.90;4.15;;;;;;;;;;4975265;28;20521;-66
2022/01/02 05:32:29;;;;;;;22.10;3.95;;;;;;;;;;4974483;28;20390;-66
2022/01/02 05:34:55;;;;;;;18.55;3.25;;;;;;;;;;4992319;28;20503;-66
2022/01/02 05:37:22;;;;;;;23.75;3.88;;;;;;;;;;4975076;28;20046;-66
2022/01/02 05:39:49;;;;;;;13.65;3.53;;;;;;;;;;4974468;28;20033;-66
2022/01/02 05:42:16;;;;;;;20.67;4.03;;;;;;;;;;4992595;28;20030;-66
2022/01/02 05:44:42;;;;;;;17.27;3.42;;;;;;;;;;4974822;28;20117;-66
2022/01/02 05:47:09;;;;;;;26.40;3.63;;;;;;;;;;4974367;28;20042;-66
2022/01/02 05:49:35;;;;;;;25.95;4.22;;;;;;;;;;4974867;28;20029;-66
2022/01/02 05:52:02;;;;;;;23.17;3.65;;;;;;;;;;4974926;28;20026;-66
2022/01/02 05:54:28;;;;;;;15.98;3.65;;;;;;;;;;4974781;28;20030;-66
2022/01/02 05:56:54;;;;;;;20.85;3.95;;;;;;;;;;4974720;28;20084;-66
2022/01/02 05:59:21;;;;;;;24.25;3.47;;;;;;;;;;4974836;28;20498;-66
2022/01/02 06:01:47;;;;;;;30.13;4.00;;;;;;;;;;4974290;28;20045;-66
2022/01/02 06:04:14;;;;;;;23.20;4.30;;;;;;;;;;4959079;28;20027;-66
2022/01/02 06:06:40;;;;;;;26.67;5.53;;;;;;;;;;4984870;28;20034;-66
2022/01/02 06:09:07;;;;;;;32.28;4.30;;;;;;;;;;4977948;28;20026;-66
2022/01/02 06:11:33;;;;;;;29.15;3.85;;;;;;;;;;4995793;28;20033;-66
2022/01/02 06:13:59;;;;;;;19.75;3.25;;;;;;;;;;4977785;28;20026;-66
2022/01/02 06:16:26;;;;;;;24.63;4.78;;;;;;;;;;4979881;28;20030;-66
2022/01/02 06:18:53;;;;;;;21.33;3.70;;;;;;;;;;4997655;28;20158;-66
2022/01/02 06:21:20;;;;;;;21.48;3.78;;;;;;;;;;4977950;28;20644;-66
2022/01/02 06:23:46;;;;;;;19.05;3.40;;;;;;;;;;4977479;28;20494;-66
2022/01/02 06:26:12;;;;;;;21.08;3.45;;;;;;;;;;4978011;28;20035;-66
2022/01/02 06:28:39;;;;;;;27.83;4.38;;;;;;;;;;4977887;28;20031;-66
2022/01/02 06:31:05;;;;;;;14.68;3.00;;;;;;;;;;4995296;28;20121;-66
2022/01/02 06:33:32;;;;;;;19.45;2.85;;;;;;;;;;4977952;28;20508;-66
2022/01/02 06:35:58;;;;;;;15.38;2.53;;;;;;;;;;4995163;28;20435;-66
2022/01/02 06:38:25;;;;;;;18.02;2.78;;;;;;;;;;4977151;28;20522;-66
2022/01/02 06:40:55;;;;;;;21.60;2.47;;;;;;;;;;4977262;28;20034;-66
2022/01/02 06:43:22;;;;;;;14.77;3.10;;;;;;;;;;4977574;28;20069;-66
2022/01/02 06:45:48;;;;;;;18.48;3.60;;;;;;;;;;4976700;28;20041;-66
2022/01/02 06:48:14;;;;;;;17.88;3.03;;;;;;;;;;4977280;28;20081;-66
2022/01/02 06:50:41;;;;;;;15.38;3.08;;;;;;;;;;4983724;28;20033;-66
2022/01/02 06:53:08;;;;;;;22.13;3.90;;;;;;;;;;4974611;28;20022;-66
2022/01/02 06:55:34;;;;;;;21.20;3.67;;;;;;;;;;4977391;28;20126;-66
2022/01/02 06:58:01;;;;;;;19.98;3.33;;;;;;;;;;4974867;28;20409;-66
2022/01/02 07:00:27;;;;;;;23.10;2.97;;;;;;;;;;4971119;28;20022;-66
2022/01/02 07:02:54;;;;;;;23.58;3.42;;;;;;;;;;4978300;28;20038;-66
2022/01/02 07:05:20;;;;;;;23.55;3.08;;;;;;;;;;4974230;28;20030;-66
2022/01/02 07:07:47;;;;;;;19.73;3.85;;;;;;;;;;4987754;28;20073;-66
2022/01/02 07:10:16;;;;;;;19.30;2.53;;;;;;;;;;4961719;28;20030;-66
2022/01/02 07:12:42;;;;;;;18.92;3.00;;;;;;;;;;4989542;28;20560;-66
2022/01/02 07:15:09;;;;;;;13.73;3.42;;;;;;;;;;4990927;28;20490;-66
2022/01/02 07:17:36;;;;;;;21.27;4.93;;;;;;;;;;4992081;28;20054;-66
2022/01/02 07:20:04;;;;;;;17.23;3.00;;;;;;;;;;4995568;28;20045;-66
2022/01/02 07:22:30;;;;;;;22.13;2.75;;;;;;;;;;4991627;28;20184;-66
2022/01/02 07:24:56;;;;;;;16.38;3.47;;;;;;;;;;4991260;28;20023;-66
2022/01/02 07:27:22;;;;;;;21.73;2.85;;;;;;;;;;4988257;28;20019;-66
2022/01/02 07:29:49;;;;;;;19.70;3.38;;;;;;;;;;4990304;28;20389;-66
2022/01/02 07:32:18;;;;;;;26.13;3.70;;;;;;;;;;4987567;28;20023;-66
2022/01/02 07:34:45;;;;;;;22.77;3.15;;;;;;;;;;4984119;28;20049;-66
2022/01/02 07:37:11;;;;;;;19.23;3.22;;;;;;;;;;4992956;28;20040;-66
2022/01/02 07:39:37;;;;;;;23.65;3.80;;;;;;;;;;4993363;28;20024;-66
2022/01/02 07:42:04;;;;;;;21.13;2.80;;;;;;;;;;4988451;28;20034;-66
2022/01/02 07:44:38;;;;;;;26.73;3.25;;;;;;;;;;4979368;28;20062;-66
2022/01/02 07:47:07;;;;;;;21.80;3.50;;;;;;;;;;4988625;28;20037;-66
2022/01/02 07:49:33;;;;;;;17.73;3.78;;;;;;;;;;4991672;28;20033;-66
2022/01/02 07:52:00;;;;;;;17.02;3.13;;;;;;;;;;4991548;28;20026;-66
2022/01/02 07:54:26;;;;;;;18.70;3.40;;;;;;;;;;4991114;28;20041;-66
2022/01/02 07:56:52;;;;;;;19.77;4.05;;;;;;;;;;4989281;28;20435;-66
2022/01/02 07:59:18;;;;;;;22.98;3.58;;;;;;;;;;4987468;28;20029;-66
2022/01/02 08:01:44;;;;;;;24.55;3.42;;;;;;;;;;4986943;28;20998;-65
2022/01/02 08:04:10;;;;;;;27.83;3.92;;;;;;;;;;4991041;28;20553;-65
2022/01/02 08:06:36;;;;;;;30.63;3.95;;;;;;;;;;4987215;28;20085;-65
2022/01/02 08:09:03;;;;;;;18.98;3.00;;;;;;;;;;4992814;28;20038;-65
2022/01/02 08:11:29;;;;;;;20.25;3.05;;;;;;;;;;4990075;28;20085;-65
2022/01/02 08:13:55;;;;;;;17.63;3.58;;;;;;;;;;4990349;28;20037;-65
2022/01/02 08:16:21;;;;;;;22.73;3.35;;;;;;;;;;4988614;28;20022;-65
2022/01/02 08:18:47;;;;;;;23.27;3.08;;;;;;;;;;4971926;28;20037;-65
2022/01/02 08:21:13;;;;;;;21.38;2.30;;;;;;;;;;4993949;28;20057;-62
2022/01/02 08:23:39;;;;;;;15.65;2.95;;;;;;;;;;4988237;28;20053;-62
2022/01/02 08:26:05;;;;;;;22.88;3.03;;;;;;;;;;4989040;28;20086;-62
2022/01/02 08:28:32;;;;;;;22.20;3.55;;;;;;;;;;4993071;28;20105;-62
2022/01/02 08:30:58;;;;;;;23.08;2.97;;;;;;;;;;4990527;28;20018;-62
2022/01/02 08:33:24;;;;;;;19.80;2.83;;;;;;;;;;4991888;28;20405;-62
2022/01/02 08:35:50;;;;;;;23.50;3.15;;;;;;;;;;4989647;28;20109;-62
2022/01/02 08:38:16;;;;;;;18.77;2.72;;;;;;;;;;4991514;28;20046;-62
2022/01/02 08:40:43;;;;;;;17.42;3.67;;;;;;;;;;4992239;28;20505;-62
2022/01/02 08:43:09;;;;;;;30.60;5.68;;;;;;;;;;4989443;28;20026;-62
2022/01/02 08:45:36;;;;;;;23.48;3.22;;;;;;;;;;4990295;28;20486;-62
2022/01/02 08:48:03;;;;;;;20.83;3.65;;;;;;;;;;4984979;28;20031;-62
2022/01/02 08:50:29;;;;;;;21.55;3.58;;;;;;;;;;4990736;28;20430;-62
2022/01/02 08:52:55;;;;;;;20.38;4.40;;;;;;;;;;4986453;28;20081;-62
2022/01/02 08:55:21;;;;;;;23.95;3.33;;;;;;;;;;4982980;28;20505;-62
2022/01/02 08:57:47;;;;;;;23.67;3.40;;;;;;;;;;4990772;28;20445;-62
2022/01/02 09:00:14;;;;;;;15.50;3.20;;;;;;;;;;4992385;28;20069;-62
2022/01/02 09:02:40;;;;;;;27.48;3.95;;;;;;;;;;4991140;28;20466;-62
2022/01/02 09:05:07;;;;;;;19.63;3.00;;;;;;;;;;4994860;28;20045;-62
2022/01/02 09:07:33;;;;;;;23.88;2.90;;;;;;;;;;4991420;28;20061;-62
2022/01/02 09:09:59;;;;;;;19.55;3.00;;;;;;;;;;4988413;28;20037;-62
2022/01/02 09:12:25;;;;;;;21.33;3.13;;;;;;;;;;4986718;28;20023;-62
2022/01/02 09:14:51;;;;;;;22.77;2.72;;;;;;;;;;4997156;28;20035;-62
2022/01/02 09:17:17;;;;;;;18.58;3.53;;;;;;;;;;4995517;28;20578;-62
2022/01/02 09:19:43;;;;;;;21.45;3.88;;;;;;;;;;4992905;28;20044;-62
2022/01/02 09:22:09;;;;;;;17.52;2.85;;;;;;;;;;4993110;28;20471;-62
2022/01/02 09:24:35;;;;;;;20.38;2.83;;;;;;;;;;4992895;28;20033;-65
2022/01/02 09:27:02;;;;;;;17.40;2.58;;;;;;;;;;5005347;28;20482;-65
2022/01/02 09:29:28;;;;;;;25.25;3.38;;;;;;;;;;4996920;28;20165;-65
2022/01/02 09:31:54;;;;;;;19.92;3.20;;;;;;;;;;4992706;28;20039;-65
2022/01/02 09:34:20;;;;;;;21.88;3.60;;;;;;;;;;4992482;28;20038;-65
2022/01/02 09:36:46;;;;;;;21.50;3.70;;;;;;;;;;4995929;28;20375;-65
2022/01/02 09:39:12;;;;;;;23.35;3.15;;;;;;;;;;4996316;28;20129;-65
2022/01/02 09:41:40;;;;;;;23.20;3.13;;;;;;;;;;4994835;28;20033;-65
2022/01/02 09:44:06;;;;;;;19.27;3.45;;;;;;;;;;4995710;28;20033;-65
2022/01/02 09:46:32;;;;;;;17.85;3.35;;;;;;;;;;4995760;28;20023;-65
2022/01/02 09:48:59;;;;;;;24.80;3.72;;;;;;;;;;4998560;28;20042;-65
2022/01/02 09:51:26;;;;;;;17.15;2.92;;;;;;;;;;5009092;28;20080;-65
2022/01/02 09:53:53;;;;;;;18.77;3.05;;;;;;;;;;4996496;28;20038;-65
2022/01/02 09:56:20;;;;;;;24.15;3.70;;;;;;;;;;4996246;28;20033;-65
2022/01/02 09:58:46;;;;;;;24.73;4.05;;;;;;;;;;4994867;28;20121;-65
2022/01/02 10:01:20;;;;;;;20.10;3.55;;;;;;;;;;4998233;28;20034;-65
2022/01/02 10:03:50;;;;;;;11.85;3.35;;;;;;;;;;5000064;28;20029;-65
2022/01/02 10:06:17;;;;;;;25.30;3.75;;;;;;;;;;5006580;28;20034;-65
2022/01/02 10:08:43;;;;;;;24.98;4.30;;;;;;;;;;4978579;28;20453;-65
2022/01/02 10:11:16;;;;;;;16.25;2.75;;;;;;;;;;4996007;28;20027;-65
2022/01/02 10:13:46;;;;;;;14.05;2.75;;;;;;;;;;4995238;28;20076;-65
2022/01/02 10:16:27;;;;;;;30.77;3.65;;;;;;;;;;4995800;28;20026;-65
2022/01/02 10:18:54;;;;;;;31.10;3.92;;;;;;;;;;4995481;28;20037;-65
2022/01/02 10:21:46;;;;;;;21.23;2.85;;;;;;;;;;4994338;28;20045;-65
2022/01/02 10:24:13;;;;;;;22.52;3.53;;;;;;;;;;4966074;28;20042;-65
2022/01/02 10:26:40;;;;;;;22.33;3.50;;;;;;;;;;4995511;28;20019;-65
2022/01/02 10:29:13;;;;;;;20.45;4.30;;;;;;;;;;4995438;28;20117;-66
2022/01/02 10:31:40;;;;;;;21.77;3.42;;;;;;;;;;4995653;28;20047;-66
2022/01/02 10:34:06;;;;;;;26.40;3.85;;;;;;;;;;4994984;28;20034;-64
2022/01/02 10:36:32;;;;;;;26.85;3.42;;;;;;;;;;4995331;28;20379;-65
2022/01/02 10:39:19;;;;;;;25.42;4.25;;;;;;;;;;4995205;28;20042;-65
2022/01/02 10:41:50;;;;;;;25.42;3.42;;;;;;;;;;4995222;28;20038;-65
2022/01/02 10:44:20;;;;;;;24.55;3.92;;;;;;;;;;4995098;28;20049;-65
2022/01/02 10:47:05;;;;;;;38.22;5.90;;;;;;;;;;4976629;28;20038;-65
2022/01/02 10:49:46;;;;;;;39.80;5.05;;;;;;;;;;4994671;28;20061;-65
2022/01/02 10:52:18;;;;;;;21.85;3.75;;;;;;;;;;4994458;28;20026;-65
2022/01/02 10:54:44;;;;;;;17.33;3.38;;;;;;;;;;4995256;28;20042;-65
2022/01/02 10:57:11;;;;;;;24.33;3.63;;;;;;;;;;4995368;28;20058;-66
2022/01/02 10:59:37;;;;;;;30.17;4.13;;;;;;;;;;4994843;28;20113;-66
2022/01/02 11:02:03;;;;;;;18.23;4.18;;;;;;;;;;4995027;28;20030;-66
2022/01/02 11:04:30;;;;;;;27.90;4.20;;;;;;;;;;4996144;28;20084;-62
2022/01/02 11:06:59;;;;;;;16.70;3.53;;;;;;;;;;4997616;28;20034;-64
2022/01/02 11:09:26;;;;;;;25.08;3.53;;;;;;;;;;4974293;28;20386;-64
2022/01/02 11:11:52;;;;;;;32.20;5.57;;;;;;;;;;4994255;28;20463;-65
2022/01/02 11:14:19;;;;;;;21.98;3.53;;;;;;;;;;4996099;28;20029;-64
2022/01/02 11:16:45;;;;;;;24.67;3.88;;;;;;;;;;4997658;28;20050;-64
2022/01/02 11:19:11;;;;;;;20.50;3.92;;;;;;;;;;5001764;28;20026;-65
2022/01/02 11:21:41;;;;;;;28.65;3.50;;;;;;;;;;5001280;28;20391;-65
2022/01/02 11:24:18;;;;;;;20.52;3.38;;;;;;;;;;5001156;28;20076;-65
2022/01/02 11:26:53;;;;;;;28.15;4.03;;;;;;;;;;4985220;28;20045;-64
2022/01/02 11:29:25;;;;;;;21.92;4.10;;;;;;;;;;5004003;28;20022;-64
2022/01/02 11:31:51;;;;;;;22.60;3.65;;;;;;;;;;4976283;28;20041;-65
2022/01/02 11:34:32;;;;;;;17.40;3.22;;;;;;;;;;5002595;28;20520;-65
2022/01/02 11:37:14;;;;;;;19.02;3.13;;;;;;;;;;4996733;28;20038;-65
2022/01/02 11:39:52;;;;;;;16.30;3.30;;;;;;;;;;4987671;28;20474;-65
2022/01/02 11:42:41;;;;;;;22.08;3.70;;;;;;;;;;4998417;28;20073;-65
2022/01/02 11:45:08;;;;;;;19.33;3.58;;;;;;;;;;5006772;28;20033;-65
2022/01/02 11:47:42;;;;;;;17.50;3.28;;;;;;;;;;5001419;28;20358;-66
2022/01/02 11:50:26;;;;;;;32.20;4.15;;;;;;;;;;5000162;28;20045;-65
2022/01/02 11:53:11;;;;;;;26.25;3.58;;;;;;;;;;4992705;28;20081;-65
2022/01/02 11:55:37;;;;;;;25.52;4.45;;;;;;;;;;4994065;28;20042;-65
2022/01/02 11:58:03;;;;;;;27.67;3.78;;;;;;;;;;4986734;28;20108;-65
2022/01/02 12:00:34;;;;;;;19.70;3.65;;;;;;;;;;4998056;28;20034;-65
2022/01/02 12:03:00;;;;;;;15.45;3.45;;;;;;;;;;4999754;28;20037;-64
2022/01/02 12:05:26;;;;;;;21.58;3.88;;;;;;;;;;4993368;28;20022;-73
2022/01/02 12:07:55;;;;;;;17.38;4.78;;;;;;;;;;4995726;28;20036;-73
2022/01/02 12:10:26;;;;;;;27.52;3.58;;;;;;;;;;5000179;28;20030;-77
2022/01/02 12:12:58;;;;;;;21.05;2.92;;;;;;;;;;5000774;28;20093;-73
2022/01/02 12:15:33;;;;;;;21.55;3.53;;;;;;;;;;5000581;28;20037;-72
2022/01/02 12:18:26;;;;;;;22.05;3.95;;;;;;;;;;5008205;28;20034;-75
2022/01/02 12:21:00;;;;;;;;;;;;;;;;;;5005251;28;20026;-74
2022/01/02 12:23:36;;;;;;;16.55;3.22;;;;;;;;;;4988784;28;20019;-77
2022/01/02 12:26:16;;;;;;;23.30;4.05;;;;;;;;;;5001431;28;20038;-74
2022/01/02 12:28:47;;;;;;;19.73;3.03;;;;;;;;;;5003152;28;20079;-74
2022/01/02 12:31:19;;;;;;;14.63;3.10;;;;;;;;;;4998358;28;20034;-64
2022/01/02 12:33:46;;;;;;;25.40;3.92;;;;;;;;;;4995347;28;20022;-64
2022/01/02 12:36:12;;;;;;;16.67;3.55;;;;;;;;;;5000540;28;20676;-63
2022/01/02 12:38:48;;;;;;;24.70;3.10;;;;;;;;;;5005779;28;20504;-63
2022/01/02 12:41:15;;;;;;;23.83;3.30;;;;;;;;;;4995086;28;20031;-64
2022/01/02 12:43:51;;;;;;;20.73;3.40;;;;;;;;;;5000140;28;20030;-64
2022/01/02 12:46:50;;;;;;;26.80;5.45;;;;;;;;;;4991541;28;20027;-64
2022/01/02 12:49:17;;;;;;;20.60;3.78;;;;;;;;;;4979625;28;20466;-64
2022/01/02 12:51:47;;;;;;;24.25;3.80;;;;;;;;;;4992033;28;20033;-64
2022/01/02 12:54:15;;;;;;;24.33;4.35;;;;;;;;;;4991842;28;20084;-64
2022/01/02 12:56:44;;;;;;;22.23;4.15;;;;;;;;;;4994687;28;20695;-64
2022/01/02 12:59:13;;;;;;;25.42;5.05;;;;;;;;;;4998457;28;20487;-64
2022/01/02 13:01:54;;;;;;;28.08;4.80;;;;;;;;;;4991567;28;20418;-64
2022/01/02 13:04:22;;;;;;;31.95;5.32;;;;;;;;;;4996683;28;20023;-64
2022/01/02 13:06:50;;;;;;;24.67;4.43;;;;;;;;;;4990039;28;20411;-64
2022/01/02 13:09:43;;;;;;;24.23;4.40;;;;;;;;;;5002421;28;20018;-64
2022/01/02 13:12:13;;;;;;;33.95;5.40;;;;;;;;;;4998679;28;20473;-64
2022/01/02 13:14:39;;;;;;;35.67;5.22;;;;;;;;;;4994132;28;20030;-64
2022/01/02 13:17:13;;;;;;;26.70;5.00;;;;;;;;;;4984785;28;20038;-64
2022/01/02 13:19:41;;;;;;;33.30;5.50;;;;;;;;;;4990585;28;20042;-64
2022/01/02 13:22:08;;;;;;;29.10;6.35;;;;;;;;;;4988315;28;20069;-63
2022/01/02 13:24:35;;;;;;;31.67;6.13;;;;;;;;;;4984175;28;20031;-64
2022/01/02 13:27:03;;;;;;;34.13;4.75;;;;;;;;;;4991068;28;20026;-64
2022/01/02 13:29:29;;;;;;;34.65;4.57;;;;;;;;;;4989163;28;20023;-64
2022/01/02 13:31:57;;;;;;;20.30;4.20;;;;;;;;;;4990883;28;20023;-64
2022/01/02 13:34:25;;;;;;;33.80;5.10;;;;;;;;;;4985969;28;20031;-64
2022/01/02 13:36:58;;;;;;;28.60;4.25;;;;;;;;;;4983400;28;20084;-63
2022/01/02 13:39:24;;;;;;;;;;;;;;;;;;4988450;28;20045;-64
2022/01/02 13:41:50;;;;;;;26.25;4.40;;;;;;;;;;4990735;28;20281;-64
2022/01/02 13:44:17;;;;;;;31.88;4.32;;;;;;;;;;4995552;28;20572;-64
2022/01/02 13:46:50;;;;;;;28.05;5.93;;;;;;;;;;4990931;28;20071;-64
2022/01/02 13:49:36;;;;;;;33.58;4.40;;;;;;;;;;4992177;28;20031;-63
2022/01/02 13:52:03;;;;;;;22.20;3.97;;;;;;;;;;4985007;28;20506;-64
2022/01/02 13:54:29;;;;;;;22.52;4.72;;;;;;;;;;4984894;28;20018;-64
2022/01/02 13:56:57;;;;;;;25.15;4.15;;;;;;;;;;4991521;28;20402;-64
2022/01/02 13:59:26;;;;;;;25.83;4.65;;;;;;;;;;4989134;28;20033;-64
2022/01/02 14:01:52;;;;;;;27.30;4.60;;;;;;;;;;4990095;28;20550;-64
2022/01/02 14:04:22;;;;;;;32.63;4.93;;;;;;;;;;4982971;28;20029;-64
2022/01/02 14:06:48;;;;;;;29.48;5.35;;;;;;;;;;4991486;28;20397;-64
2022/01/02 14:09:15;;;;;;;33.75;5.22;;;;;;;;;;4986905;28;20030;-64
2022/01/02 14:11:42;;;;;;;32.75;5.03;;;;;;;;;;4994570;28;20026;-64
2022/01/02 14:14:17;;;;;;;22.02;4.40;;;;;;;;;;4991856;28;20117;-64
2022/01/02 14:17:13;;;;;;;25.42;5.53;;;;;;;;;;4989691;28;20055;-64
2022/01/02 14:19:47;;;;;;;33.78;5.65;;;;;;;;;;4986430;28;20034;-64
2022/01/02 14:22:15;;;;;;;31.30;4.32;;;;;;;;;;4992155;28;20612;-64
2022/01/02 14:24:42;;;;;;;23.08;4.93;;;;;;;;;;4992056;28;20437;-64
2022/01/02 14:27:08;;;;;;;26.52;6.03;;;;;;;;;;4995904;28;20045;-64
2022/01/02 14:29:34;;;;;;;26.92;4.28;;;;;;;;;;4992700;28;20036;-64
2022/01/02 14:32:01;;;;;;;20.58;3.95;;;;;;;;;;4995579;28;20026;-64
2022/01/02 14:34:27;;;;;;;27.52;4.93;;;;;;;;;;4989452;28;20026;-64
2022/01/02 14:36:53;;;;;;;21.52;3.17;;;;;;;;;;4993474;28;20030;-64
2022/01/02 14:39:19;;;;;;;23.23;3.78;;;;;;;;;;4989020;28;20039;-64
2022/01/02 14:41:46;;;;;;;27.10;3.70;;;;;;;;;;4994050;28;20044;-64
2022/01/02 14:44:13;;;;;;;24.95;3.55;;;;;;;;;;4990549;28;20018;-64
2022/01/02 14:46:40;;;;;;;21.85;4.63;;;;;;;;;;4967684;28;20092;-64
2022/01/02 14:49:06;;;;;;;23.15;3.70;;;;;;;;;;4985780;28;20023;-64